createdAt,value
2023-03-21T00:00:42.518Z,35.22
2023-03-21T00:03:09.290Z,33.38
2023-03-21T00:05:41.995Z,33.92
2023-03-21T00:08:09.666Z,35.20
2023-03-21T00:10:42.270Z,33.70
2023-03-21T00:13:15.672Z,34.85
2023-03-21T00:16:06.156Z,33.20
2023-03-21T00:21:39.622Z,31.17
2023-03-21T00:24:02.193Z,31.05
2023-03-21T00:26:28.934Z,34.08
2023-03-21T00:28:55.590Z,33.15
2023-03-21T00:31:22.340Z,33.60
2023-03-21T00:33:50.051Z,31.92
2023-03-21T00:36:17.281Z,33.08
2023-03-21T00:38:44.029Z,32.85
2023-03-21T00:41:23.281Z,32.78
2023-03-21T00:43:55.559Z,31.88
2023-03-21T00:46:25.189Z,32.65
2023-03-21T00:48:52.267Z,31.42
2023-03-21T00:51:26.652Z,31.95
2023-03-21T00:53:56.193Z,33.77
2023-03-21T00:56:26.421Z,33.20
2023-03-21T00:58:53.364Z,33.10
2023-03-21T01:01:20.133Z,33.70
2023-03-21T01:03:51.157Z,31.02
2023-03-21T01:06:19.666Z,34.75
2023-03-21T01:08:52.712Z,32.58
2023-03-21T01:11:23.485Z,32.63
2023-03-21T01:14:10.785Z,32.80
2023-03-21T01:16:38.630Z,31.10
2023-03-21T01:19:09.339Z,30.95
2023-03-21T01:21:39.500Z,32.78
2023-03-21T01:24:07.107Z,31.88
2023-03-21T01:26:37.514Z,33.22
2023-03-21T01:29:05.588Z,33.60
2023-03-21T01:31:32.601Z,33.05
2023-03-21T01:33:59.241Z,33.10
2023-03-21T01:36:26.856Z,32.35
2023-03-21T01:38:59.594Z,29.60
2023-03-21T01:41:42.635Z,31.75
2023-03-21T01:44:28.608Z,30.90
2023-03-21T01:47:12.484Z,29.52
2023-03-21T01:49:49.568Z,28.48
2023-03-21T01:55:11.765Z,27.02
2023-03-21T01:58:04.723Z,30.17
2023-03-21T02:00:55.360Z,28.42
2023-03-21T02:03:38.500Z,29.23
2023-03-21T02:06:42.099Z,29.05
2023-03-21T02:09:22.591Z,28.27
2023-03-21T02:11:49.550Z,26.42
2023-03-21T02:14:28.259Z,28.02
2023-03-21T02:17:15.548Z,27.08
2023-03-21T02:20:08.735Z,27.65
2023-03-21T02:22:48.632Z,28.08
2023-03-21T02:25:27.518Z,29.25
2023-03-21T02:28:08.018Z,27.40
2023-03-21T02:30:49.246Z,27.40
2023-03-21T02:33:37.269Z,29.25
2023-03-21T02:36:26.559Z,28.70
2023-03-21T02:39:02.144Z,29.80
2023-03-21T02:42:02.120Z,30.02
2023-03-21T02:44:43.623Z,32.25
2023-03-21T02:47:18.234Z,32.08
2023-03-21T02:49:53.505Z,33.43
2023-03-21T02:52:38.651Z,31.98
2023-03-21T02:55:15.463Z,29.88
2023-03-21T02:57:54.572Z,30.65
2023-03-21T03:00:28.314Z,30.48
2023-03-21T03:03:08.047Z,31.60
2023-03-21T03:05:41.857Z,31.33
2023-03-21T03:08:08.802Z,33.40
2023-03-21T03:10:41.423Z,31.75
2023-03-21T03:13:34.732Z,33.28
2023-03-21T03:16:25.838Z,32.50
2023-03-21T03:18:59.542Z,33.90
2023-03-21T03:21:32.898Z,33.58
2023-03-21T03:24:11.773Z,32.45
2023-03-21T03:27:03.690Z,31.15
2023-03-21T03:29:34.527Z,32.97
2023-03-21T03:32:07.632Z,31.88
2023-03-21T03:37:14.277Z,32.28
2023-03-21T03:39:49.772Z,32.97
2023-03-21T03:42:28.366Z,35.30
2023-03-21T03:45:04.057Z,32.08
2023-03-21T03:48:14.411Z,31.10
2023-03-21T03:51:03.894Z,32.20
2023-03-21T03:54:05.040Z,29.92
2023-03-21T03:56:31.990Z,31.10
2023-03-21T03:58:58.793Z,32.25
2023-03-21T04:01:43.684Z,30.27
2023-03-21T04:04:13.452Z,31.58
2023-03-21T04:06:51.650Z,31.48
2023-03-21T04:09:28.952Z,31.17
2023-03-21T04:12:04.500Z,30.23
2023-03-21T04:14:44.012Z,31.63
2023-03-21T04:17:12.812Z,32.00
2023-03-21T04:19:39.487Z,32.28
2023-03-21T04:22:06.577Z,31.80
2023-03-21T04:24:39.997Z,31.80
2023-03-21T04:27:06.846Z,32.22
2023-03-21T04:29:41.908Z,30.88
2023-03-21T04:32:26.770Z,31.20
2023-03-21T04:35:08.454Z,32.55
2023-03-21T04:37:35.762Z,30.48
2023-03-21T04:40:07.545Z,29.08
2023-03-21T04:42:35.336Z,29.50
2023-03-21T04:45:02.615Z,29.15
2023-03-21T04:47:29.670Z,30.00
2023-03-21T04:49:57.400Z,30.25
2023-03-21T04:52:25.492Z,29.90
2023-03-21T04:54:52.574Z,32.65
2023-03-21T04:57:20.056Z,28.70
2023-03-21T04:59:46.866Z,29.55
2023-03-21T05:02:15.426Z,31.30
2023-03-21T05:04:43.649Z,29.33
2023-03-21T05:07:11.080Z,30.95
2023-03-21T05:09:38.313Z,32.38
2023-03-21T05:12:05.543Z,33.35
2023-03-21T05:14:33.403Z,33.55
2023-03-21T05:17:05.074Z,34.50
2023-03-21T05:19:35.885Z,31.70
2023-03-21T05:22:07.018Z,30.33
2023-03-21T05:24:34.685Z,32.78
2023-03-21T05:27:02.492Z,31.92
2023-03-21T05:29:33.617Z,31.58
2023-03-21T05:32:03.144Z,30.85
2023-03-21T05:34:30.899Z,29.92
2023-03-21T05:36:58.574Z,31.73
2023-03-21T05:39:30.973Z,27.70
2023-03-21T05:42:04.635Z,28.50
2023-03-21T05:44:31.384Z,28.17
2023-03-21T05:47:00.025Z,24.20
2023-03-21T05:49:36.601Z,25.80
2023-03-21T05:52:04.205Z,25.77
2023-03-21T05:54:30.865Z,25.10
2023-03-21T05:56:58.257Z,24.73
2023-03-21T05:59:45.180Z,24.75
2023-03-21T06:02:12.580Z,25.98
2023-03-21T06:04:39.903Z,26.77
2023-03-21T06:07:06.656Z,27.67
2023-03-21T06:09:34.509Z,26.40
2023-03-21T06:12:03.269Z,26.23
2023-03-21T06:14:41.313Z,27.42
2023-03-21T06:17:22.138Z,27.08
2023-03-21T06:19:54.468Z,27.67
2023-03-21T06:22:26.872Z,29.75
2023-03-21T06:24:53.889Z,31.00
2023-03-21T06:27:20.849Z,32.92
2023-03-21T06:29:58.032Z,30.90
2023-03-21T06:32:26.674Z,31.08
2023-03-21T06:34:58.031Z,34.40
2023-03-21T06:37:26.497Z,36.00
2023-03-21T06:39:55.469Z,35.85
2023-03-21T06:42:22.967Z,36.78
2023-03-21T06:44:51.255Z,36.40
2023-03-21T06:47:18.243Z,39.92
2023-03-21T06:49:46.575Z,40.88
2023-03-21T06:52:13.561Z,41.80
2023-03-21T06:54:40.950Z,41.53
2023-03-21T06:57:13.460Z,39.90
2023-03-21T06:59:41.898Z,38.92
2023-03-21T07:02:18.334Z,38.97
2023-03-21T07:05:00.930Z,40.05
2023-03-21T07:07:29.832Z,40.25
2023-03-21T07:09:57.055Z,42.72
2023-03-21T07:12:25.679Z,42.33
2023-03-21T07:15:11.286Z,42.63
2023-03-21T07:17:39.486Z,41.42
2023-03-21T07:20:08.308Z,41.83
2023-03-21T07:22:36.008Z,43.00
2023-03-21T07:25:05.349Z,38.53
2023-03-21T07:27:40.794Z,42.25
2023-03-21T07:30:09.026Z,41.75
2023-03-21T07:32:38.034Z,40.85
2023-03-21T07:35:07.174Z,40.03
2023-03-21T07:37:35.495Z,43.17
2023-03-21T07:40:09.635Z,41.67
2023-03-21T07:42:38.302Z,41.70
2023-03-21T07:45:05.594Z,41.38
2023-03-21T07:47:34.612Z,42.53
2023-03-21T07:50:01.358Z,40.05
2023-03-21T07:52:28.322Z,38.80
2023-03-21T07:54:54.899Z,37.10
2023-03-21T07:57:21.586Z,38.33
2023-03-21T07:59:48.197Z,34.92
2023-03-21T08:02:16.593Z,35.15
2023-03-21T08:04:44.097Z,34.55
2023-03-21T08:07:11.753Z,33.92
2023-03-21T08:09:38.476Z,34.47
2023-03-21T08:12:08.220Z,35.40
2023-03-21T08:14:36.840Z,33.08
2023-03-21T08:17:04.809Z,34.72
2023-03-21T08:19:31.763Z,32.00
2023-03-21T08:21:59.848Z,36.90
2023-03-21T08:24:27.520Z,36.28
2023-03-21T08:26:54.600Z,34.92
2023-03-21T08:29:21.789Z,32.25
2023-03-21T08:31:48.494Z,30.40
2023-03-21T08:34:15.387Z,28.42
2023-03-21T08:36:42.025Z,27.52
2023-03-21T08:39:08.748Z,25.05
2023-03-21T08:41:37.676Z,24.42
2023-03-21T08:44:06.595Z,23.60
2023-03-21T08:46:33.712Z,22.80
2023-03-21T08:49:00.684Z,26.10
2023-03-21T08:51:27.514Z,25.98
2023-03-21T08:53:54.306Z,24.25
2023-03-21T08:56:21.029Z,26.25
2023-03-21T08:58:47.747Z,26.38
2023-03-21T09:01:15.922Z,24.70
2023-03-21T09:03:43.614Z,24.90
2023-03-21T09:06:13.486Z,24.42
2023-03-21T09:08:42.101Z,24.63
2023-03-21T09:11:10.078Z,24.77
2023-03-21T09:13:36.924Z,25.63
2023-03-21T09:16:05.273Z,26.58
2023-03-21T09:18:49.455Z,23.50
2023-03-21T09:21:18.558Z,25.15
2023-03-21T09:23:46.222Z,27.02
2023-03-21T09:26:13.674Z,26.15
2023-03-21T09:28:40.652Z,25.73
2023-03-21T09:31:11.314Z,26.52
2023-03-21T09:33:40.439Z,25.45
2023-03-21T09:36:14.131Z,24.48
2023-03-21T09:38:45.593Z,22.42
2023-03-21T09:41:45.206Z,23.77
2023-03-21T09:45:08.968Z,24.35
2023-03-21T09:47:49.711Z,23.10
2023-03-21T09:50:31.651Z,21.25
2023-03-21T09:53:01.781Z,24.10
2023-03-21T09:55:37.871Z,23.92
2023-03-21T09:58:32.277Z,23.98
2023-03-21T10:01:41.728Z,22.95
2023-03-21T10:04:13.058Z,22.23
2023-03-21T10:06:43.166Z,22.40
2023-03-21T10:09:21.512Z,23.60
2023-03-21T10:11:59.511Z,22.55
2023-03-21T10:14:35.199Z,21.23
2023-03-21T10:17:33.851Z,21.95
2023-03-21T10:20:18.427Z,24.00
2023-03-21T10:22:49.170Z,21.92
2023-03-21T10:25:31.839Z,21.52
2023-03-21T10:28:00.587Z,20.52
2023-03-21T10:30:40.861Z,19.65
2023-03-21T10:33:14.525Z,20.13
2023-03-21T10:35:46.551Z,19.88
2023-03-21T10:38:18.284Z,18.55
2023-03-21T10:40:45.721Z,21.23
2023-03-21T10:43:29.685Z,19.15
2023-03-21T10:45:57.115Z,18.73
2023-03-21T10:48:24.825Z,18.40
2023-03-21T10:50:54.863Z,17.90
2023-03-21T10:53:27.338Z,19.95
2023-03-21T10:55:57.319Z,18.80
2023-03-21T10:58:33.354Z,17.05
2023-03-21T11:01:06.448Z,17.05
2023-03-21T11:03:38.516Z,19.42
2023-03-21T11:06:22.742Z,18.67
2023-03-21T11:08:54.144Z,17.55
2023-03-21T11:11:29.340Z,17.20
2023-03-21T11:14:01.866Z,18.65
2023-03-21T11:16:41.051Z,21.67
2023-03-21T11:19:17.620Z,21.40
2023-03-21T11:21:45.345Z,21.90
2023-03-21T11:24:18.419Z,19.90
2023-03-21T11:26:49.787Z,19.33
2023-03-21T11:29:36.257Z,20.05
2023-03-21T11:32:36.219Z,18.15
2023-03-21T11:35:21.675Z,18.05
2023-03-21T11:37:56.146Z,15.23
2023-03-21T11:40:34.967Z,15.90
2023-03-21T11:43:31.966Z,15.30
2023-03-21T11:46:04.818Z,16.90
2023-03-21T11:48:45.208Z,16.70
2023-03-21T11:51:21.042Z,17.95
2023-03-21T11:54:09.676Z,17.20
2023-03-21T11:56:45.347Z,18.02
2023-03-21T11:59:29.580Z,18.67
2023-03-21T12:02:15.226Z,17.05
2023-03-21T12:04:58.049Z,17.38
2023-03-21T12:07:44.434Z,18.65
2023-03-21T12:10:40.116Z,18.83
2023-03-21T12:13:18.693Z,16.20
2023-03-21T12:15:58.189Z,16.30
2023-03-21T12:18:35.199Z,17.48
2023-03-21T12:21:13.824Z,17.85
2023-03-21T12:23:43.457Z,16.73
2023-03-21T12:26:24.150Z,18.08
2023-03-21T12:29:12.035Z,18.65
2023-03-21T12:32:04.399Z,19.05
2023-03-21T12:34:52.925Z,20.27
2023-03-21T12:37:28.497Z,19.40
2023-03-21T12:40:07.475Z,20.45
2023-03-21T12:43:05.150Z,20.33
2023-03-21T12:45:46.156Z,18.88
2023-03-21T12:48:47.448Z,18.90
2023-03-21T12:51:23.004Z,19.80
2023-03-21T12:53:59.216Z,18.55
2023-03-21T12:56:38.747Z,18.85
2023-03-21T12:59:20.773Z,18.85
2023-03-21T13:01:51.799Z,18.13
2023-03-21T13:04:46.022Z,16.85
2023-03-21T13:07:20.064Z,18.58
2023-03-21T13:09:46.872Z,20.08
2023-03-21T13:12:28.439Z,20.13
2023-03-21T13:15:29.988Z,19.33
2023-03-21T13:18:15.733Z,17.42
2023-03-21T13:23:14.595Z,17.73
2023-03-21T13:25:50.669Z,16.75
2023-03-21T13:28:28.541Z,16.88
2023-03-21T13:31:22.671Z,17.75
2023-03-21T13:33:51.203Z,17.33
2023-03-21T13:36:28.180Z,18.15
2023-03-21T13:39:01.334Z,17.50
2023-03-21T13:41:43.626Z,17.60
2023-03-21T13:44:33.293Z,17.25
2023-03-21T13:47:05.423Z,17.23
2023-03-21T13:49:34.125Z,17.63
2023-03-21T13:52:22.636Z,18.42
2023-03-21T13:54:54.847Z,17.20
2023-03-21T13:57:27.502Z,17.38
2023-03-21T14:00:31.552Z,16.33
2023-03-21T14:03:18.146Z,16.30
2023-03-21T14:05:50.934Z,16.60
2023-03-21T14:08:31.288Z,16.58
2023-03-21T14:11:07.354Z,16.85
2023-03-21T14:13:38.000Z,16.92
2023-03-21T14:16:15.747Z,15.82
2023-03-21T14:18:55.805Z,15.80
2023-03-21T14:21:25.786Z,15.15
2023-03-21T14:24:03.234Z,16.17
2023-03-21T14:26:42.208Z,17.38
2023-03-21T14:29:25.604Z,16.15
2023-03-21T14:31:56.410Z,15.13
2023-03-21T14:34:26.005Z,15.20
2023-03-21T14:36:58.243Z,14.68
2023-03-21T14:39:31.251Z,14.85
2023-03-21T14:42:06.701Z,13.93
2023-03-21T14:47:28.993Z,15.20
2023-03-21T14:49:57.939Z,14.13
2023-03-21T14:52:31.885Z,14.27
2023-03-21T14:55:00.847Z,13.23
2023-03-21T14:57:31.312Z,13.50
2023-03-21T15:00:02.023Z,14.23
2023-03-21T15:02:36.787Z,14.05
2023-03-21T15:05:17.492Z,13.93
2023-03-21T15:07:56.758Z,13.55
2023-03-21T15:10:25.203Z,12.75
2023-03-21T15:12:51.858Z,13.23
2023-03-21T15:15:19.627Z,13.48
2023-03-21T15:17:47.290Z,12.68
2023-03-21T15:20:16.304Z,12.00
2023-03-21T15:22:47.744Z,13.40
2023-03-21T15:25:19.849Z,13.13
2023-03-21T15:27:49.374Z,13.05
2023-03-21T15:30:22.285Z,13.75
2023-03-21T15:32:49.430Z,13.40
2023-03-21T15:35:26.889Z,12.73
2023-03-21T15:37:56.132Z,12.55
2023-03-21T15:40:29.831Z,12.57
2023-03-21T15:43:16.976Z,13.23
2023-03-21T15:45:56.494Z,12.85
2023-03-21T15:48:28.786Z,12.60
2023-03-21T15:50:55.549Z,13.65
2023-03-21T15:53:24.210Z,14.13
2023-03-21T15:55:56.895Z,13.98
2023-03-21T15:58:26.553Z,12.32
2023-03-21T16:00:55.745Z,14.30
2023-03-21T16:03:27.491Z,14.73
2023-03-21T16:06:21.714Z,13.23
2023-03-21T16:09:03.359Z,12.65
2023-03-21T16:11:58.970Z,14.15
2023-03-21T16:14:27.966Z,13.25
2023-03-21T16:17:00.105Z,13.13
2023-03-21T16:19:30.525Z,14.30
2023-03-21T16:21:57.532Z,14.90
2023-03-21T16:24:24.096Z,14.15
2023-03-21T16:26:51.801Z,13.73
2023-03-21T16:29:19.485Z,14.02
2023-03-21T16:31:48.168Z,14.27
2023-03-21T16:34:15.421Z,14.05
2023-03-21T16:36:43.370Z,13.88
2023-03-21T16:39:25.359Z,14.43
2023-03-21T16:41:52.508Z,14.07
2023-03-21T16:44:20.129Z,15.68
2023-03-21T16:46:49.887Z,14.70
2023-03-21T16:49:24.524Z,14.40
2023-03-21T16:51:52.125Z,13.70
2023-03-21T16:54:19.053Z,14.50
2023-03-21T16:56:51.499Z,15.25
2023-03-21T16:59:18.510Z,19.67
2023-03-21T17:01:48.736Z,14.60
2023-03-21T17:04:18.027Z,15.35
2023-03-21T17:06:50.102Z,14.25
2023-03-21T17:09:21.126Z,13.15
2023-03-21T17:11:48.304Z,14.35
2023-03-21T17:14:18.696Z,12.57
2023-03-21T17:16:45.897Z,13.13
2023-03-21T17:19:21.985Z,14.07
2023-03-21T17:21:48.915Z,14.15
2023-03-21T17:24:15.850Z,13.45
2023-03-21T17:26:42.665Z,14.48
2023-03-21T17:29:12.829Z,13.05
2023-03-21T17:31:39.790Z,13.73
2023-03-21T17:34:06.514Z,12.32
2023-03-21T17:36:38.245Z,15.65
2023-03-21T17:39:07.332Z,13.95
2023-03-21T17:41:34.279Z,14.57
2023-03-21T17:44:01.529Z,13.57
2023-03-21T17:46:32.222Z,13.68
2023-03-21T17:48:58.831Z,13.10
2023-03-21T17:51:30.348Z,13.60
2023-03-21T17:53:57.503Z,14.27
2023-03-21T17:56:32.671Z,11.88
2023-03-21T17:59:02.815Z,10.82
2023-03-21T18:01:33.124Z,11.60
2023-03-21T18:04:02.891Z,11.05
2023-03-21T18:06:29.637Z,11.02
2023-03-21T18:08:56.378Z,10.85
2023-03-21T18:11:24.025Z,10.32
2023-03-21T18:13:51.306Z,9.57
2023-03-21T18:16:22.025Z,8.05
2023-03-21T18:18:50.941Z,7.93
2023-03-21T18:21:20.254Z,7.68
2023-03-21T18:23:47.627Z,7.10
2023-03-21T18:26:22.898Z,6.80
2023-03-21T18:29:36.604Z,7.30
2023-03-21T18:31:37.856Z,7.95
2023-03-21T18:34:04.886Z,8.68
2023-03-21T18:36:31.758Z,8.75
2023-03-21T18:38:58.872Z,7.65
2023-03-21T18:41:26.036Z,8.25
2023-03-21T18:44:02.772Z,7.70
2023-03-21T18:46:34.104Z,7.95
2023-03-21T18:49:30.329Z,8.43
2023-03-21T18:51:48.245Z,8.15
2023-03-21T18:54:15.034Z,8.55
2023-03-21T18:59:36.281Z,9.75
2023-03-21T19:02:04.217Z,8.77
2023-03-21T19:04:32.236Z,8.95
2023-03-21T19:06:59.899Z,8.80
2023-03-21T19:09:31.125Z,9.93
2023-03-21T19:11:58.584Z,9.07
2023-03-21T19:14:25.530Z,9.52
2023-03-21T19:19:39.561Z,9.20
2023-03-21T19:22:06.367Z,10.13
2023-03-21T19:24:33.087Z,8.93
2023-03-21T19:27:00.026Z,10.20
2023-03-21T19:29:26.858Z,8.27
2023-03-21T19:31:53.612Z,7.85
2023-03-21T19:34:20.923Z,9.45
2023-03-21T19:36:51.547Z,8.43
2023-03-21T19:39:22.528Z,7.93
2023-03-21T19:41:50.978Z,8.48
2023-03-21T19:44:19.067Z,9.18
2023-03-21T19:46:46.098Z,8.52
2023-03-21T19:49:12.998Z,9.25
2023-03-21T19:51:39.818Z,9.10
2023-03-21T19:54:07.739Z,8.45
2023-03-21T19:56:34.983Z,8.85
2023-03-21T19:59:02.927Z,8.38
2023-03-21T20:01:32.426Z,7.97
2023-03-21T20:03:59.812Z,9.07
2023-03-21T20:06:27.320Z,8.48
2023-03-21T20:11:41.458Z,8.00
2023-03-21T20:14:08.674Z,8.18
2023-03-21T20:16:37.029Z,7.68
2023-03-21T20:19:06.034Z,7.93
2023-03-21T20:21:43.348Z,7.97
2023-03-21T20:24:13.042Z,8.63
2023-03-21T20:26:40.265Z,8.57
2023-03-21T20:29:59.890Z,8.85
2023-03-21T20:31:55.267Z,9.23
2023-03-21T20:34:23.326Z,8.48
2023-03-21T20:36:50.425Z,7.88
2023-03-21T20:39:17.853Z,8.13
2023-03-21T20:41:44.660Z,8.20
2023-03-21T20:44:42.268Z,7.80
2023-03-21T20:47:00.553Z,7.70
2023-03-21T20:49:28.386Z,8.18
2023-03-21T20:54:43.539Z,7.88
2023-03-21T20:57:10.701Z,9.30
2023-03-21T20:59:37.415Z,7.85
2023-03-21T21:02:04.218Z,8.57
2023-03-21T21:04:49.720Z,8.43
2023-03-21T21:07:22.005Z,7.47
2023-03-21T21:09:50.016Z,7.20
2023-03-21T21:12:19.370Z,8.63
2023-03-21T21:14:47.907Z,8.48
2023-03-21T21:17:33.999Z,7.63
2023-03-21T21:20:17.323Z,8.65
2023-03-21T21:22:58.091Z,8.30
2023-03-21T21:25:26.021Z,9.15
2023-03-21T21:27:53.758Z,9.43
2023-03-21T21:30:20.936Z,8.40
2023-03-21T21:32:47.685Z,8.35
2023-03-21T21:35:14.471Z,8.45
2023-03-21T21:37:42.022Z,8.45
2023-03-21T21:40:13.717Z,8.15
2023-03-21T21:42:41.861Z,8.80
2023-03-21T21:45:11.318Z,10.60
2023-03-21T21:47:38.657Z,8.98
2023-03-21T21:50:06.639Z,9.40
2023-03-21T21:52:33.465Z,9.77
2023-03-21T21:55:02.218Z,10.05
2023-03-21T21:57:34.014Z,9.65
2023-03-21T22:00:06.861Z,9.18
2023-03-21T22:02:39.184Z,10.43
2023-03-21T22:05:07.777Z,9.73
2023-03-21T22:07:35.313Z,9.40
2023-03-21T22:10:01.984Z,9.80
2023-03-21T22:12:29.046Z,10.02
2023-03-21T22:14:56.187Z,9.13
2023-03-21T22:17:22.845Z,10.00
2023-03-21T22:20:04.316Z,9.52
2023-03-21T22:22:37.320Z,8.30
2023-03-21T22:25:06.782Z,10.02
2023-03-21T22:27:34.182Z,9.75
2023-03-21T22:30:04.491Z,10.13
2023-03-21T22:32:32.366Z,11.35
2023-03-21T22:34:58.991Z,10.80
2023-03-21T22:37:25.999Z,10.32
2023-03-21T22:39:52.798Z,10.68
2023-03-21T22:42:19.517Z,11.20
2023-03-21T22:44:46.122Z,11.90
2023-03-21T22:47:12.965Z,11.35
2023-03-21T22:49:42.379Z,11.38
2023-03-21T22:52:10.424Z,11.13
2023-03-21T22:54:37.180Z,11.73
2023-03-21T22:57:04.374Z,12.50
2023-03-21T22:59:31.266Z,11.95
2023-03-21T23:01:57.958Z,12.68
2023-03-21T23:04:27.334Z,11.77
2023-03-21T23:06:54.488Z,11.98
2023-03-21T23:09:21.258Z,12.07
2023-03-21T23:11:49.534Z,12.07
2023-03-21T23:14:17.950Z,12.25
2023-03-21T23:16:45.023Z,11.48
2023-03-21T23:19:12.303Z,11.15
2023-03-21T23:21:39.506Z,10.80
2023-03-21T23:24:07.096Z,11.20
2023-03-21T23:26:34.585Z,11.18
2023-03-21T23:29:01.162Z,11.88
2023-03-21T23:31:28.704Z,11.13
2023-03-21T23:33:58.069Z,11.60
2023-03-21T23:36:24.825Z,12.00
2023-03-21T23:38:51.624Z,11.63
2023-03-21T23:41:21.725Z,11.60
2023-03-21T23:43:49.152Z,12.20
2023-03-21T23:46:17.478Z,10.50
2023-03-21T23:48:45.653Z,11.05
2023-03-21T23:51:14.228Z,11.20
2023-03-21T23:53:40.955Z,11.55
2023-03-21T23:56:19.516Z,11.73
2023-03-21T23:58:47.043Z,10.68
